createdAt,value
2019-03-26T00:02:45.708Z,101551.22
2019-03-26T00:05:32.711Z,101551.42
2019-03-26T00:08:19.264Z,101551.73
2019-03-26T00:11:05.621Z,101559.13
2019-03-26T00:13:52.135Z,101563.50
2019-03-26T00:16:38.195Z,101561.59
2019-03-26T00:19:24.430Z,101569.03
2019-03-26T00:22:11.070Z,101561.69
2019-03-26T00:24:57.776Z,101564.09
2019-03-26T00:27:43.919Z,101563.53
2019-03-26T00:30:30.155Z,101568.57
2019-03-26T00:33:16.595Z,101565.13
2019-03-26T00:36:04.066Z,101564.98
2019-03-26T00:38:50.627Z,101564.63
2019-03-26T00:41:38.329Z,101562.56
2019-03-26T00:44:24.317Z,101559.43
2019-03-26T00:47:10.710Z,101564.98
2019-03-26T00:49:57.264Z,101564.98
2019-03-26T00:52:44.795Z,101564.89
2019-03-26T00:55:32.143Z,101560.05
2019-03-26T00:58:20.121Z,101564.16
2019-03-26T01:01:06.303Z,101563.70
2019-03-26T01:03:54.949Z,101569.30
2019-03-26T01:06:41.067Z,101573.66
2019-03-26T01:09:27.464Z,101572.73
2019-03-26T01:12:13.867Z,101570.27
2019-03-26T01:15:00.327Z,101573.66
2019-03-26T01:17:46.252Z,101574.53
2019-03-26T01:20:32.836Z,101582.24
2019-03-26T01:23:19.479Z,101587.32
2019-03-26T01:26:05.677Z,101592.63
2019-03-26T01:28:51.879Z,101593.23
2019-03-26T01:31:38.063Z,101586.26
2019-03-26T01:34:24.425Z,101593.60
2019-03-26T01:37:10.519Z,101596.46
2019-03-26T01:39:56.503Z,101603.52
2019-03-26T01:42:44.039Z,101598.88
2019-03-26T01:45:30.475Z,101597.28
2019-03-26T01:48:16.696Z,101594.25
2019-03-26T01:51:03.272Z,101598.42
2019-03-26T01:53:49.688Z,101596.68
2019-03-26T01:56:35.787Z,101593.29
2019-03-26T01:59:24.156Z,101597.30
2019-03-26T02:02:10.268Z,101599.91
2019-03-26T02:05:00.170Z,101595.50
2019-03-26T02:07:44.929Z,101592.38
2019-03-26T02:10:31.220Z,101599.87
2019-03-26T02:13:18.035Z,101602.63
2019-03-26T02:16:04.233Z,101602.77
2019-03-26T02:18:52.272Z,101598.67
2019-03-26T02:21:38.644Z,101600.38
2019-03-26T02:24:25.154Z,101593.25
2019-03-26T02:27:12.436Z,101597.17
2019-03-26T02:29:58.524Z,101596.05
2019-03-26T02:32:44.541Z,101596.05
2019-03-26T02:35:30.886Z,101604.13
2019-03-26T02:38:17.081Z,101606.06
2019-03-26T02:41:03.644Z,101598.95
2019-03-26T02:43:50.105Z,101596.69
2019-03-26T02:46:36.524Z,101604.93
2019-03-26T02:49:23.100Z,101598.07
2019-03-26T02:52:09.602Z,101601.52
2019-03-26T02:54:57.219Z,101598.72
2019-03-26T02:57:43.601Z,101597.90
2019-03-26T03:00:30.065Z,101593.17
2019-03-26T03:03:16.138Z,101592.61
2019-03-26T03:06:02.778Z,101598.07
2019-03-26T03:08:49.050Z,101599.25
2019-03-26T03:11:34.979Z,101610.20
2019-03-26T03:14:21.682Z,101609.11
2019-03-26T03:17:08.506Z,101609.92
2019-03-26T03:19:54.427Z,101611.73
2019-03-26T03:22:40.913Z,101608.88
2019-03-26T03:25:27.267Z,101608.88
2019-03-26T03:28:13.315Z,101612.25
2019-03-26T03:30:59.910Z,101615.52
2019-03-26T03:33:46.270Z,101620.55
2019-03-26T03:36:32.604Z,101619.55
2019-03-26T03:39:19.123Z,101613.84
2019-03-26T03:42:05.415Z,101614.51
2019-03-26T03:44:51.529Z,101610.59
2019-03-26T03:47:38.729Z,101614.19
2019-03-26T03:50:28.429Z,101613.22
2019-03-26T03:53:17.269Z,101607.86
2019-03-26T03:56:04.859Z,101608.58
2019-03-26T03:58:51.399Z,101602.90
2019-03-26T04:01:38.335Z,101611.97
2019-03-26T04:04:24.328Z,101612.03
2019-03-26T04:07:10.844Z,101613.43
2019-03-26T04:09:57.365Z,101612.67
2019-03-26T04:12:43.631Z,101614.35
2019-03-26T04:15:34.361Z,101617.90
2019-03-26T04:18:18.337Z,101611.66
2019-03-26T04:21:05.044Z,101602.38
2019-03-26T04:23:52.826Z,101602.38
2019-03-26T04:26:38.873Z,101611.30
2019-03-26T04:29:25.073Z,101607.77
2019-03-26T04:32:11.636Z,101607.86
2019-03-26T04:34:57.972Z,101616.95
2019-03-26T04:37:44.193Z,101612.30
2019-03-26T04:40:30.816Z,101611.25
2019-03-26T04:43:18.959Z,101608.98
2019-03-26T04:46:05.356Z,101604.19
2019-03-26T04:48:52.153Z,101608.83
2019-03-26T04:51:38.695Z,101601.80
2019-03-26T04:54:24.612Z,101612.54
2019-03-26T04:57:11.333Z,101610.80
2019-03-26T04:59:57.605Z,101614.22
2019-03-26T05:02:43.668Z,101608.04
2019-03-26T05:05:29.777Z,101608.98
2019-03-26T05:08:16.059Z,101613.11
2019-03-26T05:11:02.647Z,101615.36
2019-03-26T05:13:49.008Z,101617.73
2019-03-26T05:16:35.148Z,101605.55
2019-03-26T05:19:21.377Z,101610.11
2019-03-26T05:22:07.496Z,101609.69
2019-03-26T05:24:53.997Z,101609.80
2019-03-26T05:27:45.739Z,101609.27
2019-03-26T05:30:28.872Z,101610.95
2019-03-26T05:33:15.060Z,101617.67
2019-03-26T05:36:01.498Z,101615.52
2019-03-26T05:38:47.973Z,101621.53
2019-03-26T05:41:34.676Z,101624.51
2019-03-26T05:44:20.831Z,101617.27
2019-03-26T05:47:08.005Z,101617.74
2019-03-26T05:49:54.009Z,101620.05
2019-03-26T05:52:40.220Z,101618.48
2019-03-26T05:55:26.976Z,101620.83
2019-03-26T05:58:14.429Z,101623.27
2019-03-26T06:01:00.687Z,101615.72
2019-03-26T06:03:46.948Z,101608.89
2019-03-26T06:06:32.888Z,101609.73
2019-03-26T06:09:19.496Z,101602.89
2019-03-26T06:12:05.998Z,101600.83
2019-03-26T06:14:52.248Z,101608.87
2019-03-26T06:17:38.972Z,101604.52
2019-03-26T06:20:25.307Z,101608.33
2019-03-26T06:23:12.672Z,101612.17
2019-03-26T06:25:59.168Z,101611.58
2019-03-26T06:28:45.473Z,101620.25
2019-03-26T06:31:32.187Z,101622.57
2019-03-26T06:34:18.549Z,101620.41
2019-03-26T06:37:17.087Z,101625.73
2019-03-26T06:39:53.149Z,101627.03
2019-03-26T06:42:40.049Z,101626.36
2019-03-26T06:45:26.393Z,101626.20
2019-03-26T06:48:12.333Z,101626.45
2019-03-26T06:50:59.284Z,101624.86
2019-03-26T06:53:45.556Z,101626.98
2019-03-26T06:56:31.669Z,101627.21
2019-03-26T06:59:18.430Z,101632.86
2019-03-26T07:02:04.843Z,101638.77
2019-03-26T07:04:51.074Z,101645.19
2019-03-26T07:07:37.266Z,101645.67
2019-03-26T07:10:27.151Z,101651.76
2019-03-26T07:13:14.428Z,101642.92
2019-03-26T07:16:02.910Z,101641.72
2019-03-26T07:18:49.285Z,101648.04
2019-03-26T07:21:35.393Z,101643.78
2019-03-26T07:24:21.612Z,101646.06
2019-03-26T07:27:08.220Z,101654.91
2019-03-26T07:29:54.509Z,101658.45
2019-03-26T07:32:40.461Z,101658.10
2019-03-26T07:35:30.650Z,101657.11
2019-03-26T07:38:17.277Z,101658.40
2019-03-26T07:41:03.602Z,101657.09
2019-03-26T07:43:50.316Z,101666.25
2019-03-26T07:46:36.573Z,101666.10
2019-03-26T07:49:22.718Z,101673.78
2019-03-26T07:52:09.497Z,101676.52
2019-03-26T07:54:55.821Z,101680.46
2019-03-26T07:57:41.919Z,101684.22
2019-03-26T08:00:36.122Z,101674.34
2019-03-26T08:03:21.865Z,101675.84
2019-03-26T08:06:08.289Z,101680.21
2019-03-26T08:08:54.736Z,101681.08
2019-03-26T08:11:41.006Z,101684.79
2019-03-26T08:14:27.526Z,101678.52
2019-03-26T08:17:14.578Z,101673.49
2019-03-26T08:20:00.726Z,101678.02
2019-03-26T08:22:47.609Z,101681.10
2019-03-26T08:25:34.514Z,101679.38
2019-03-26T08:28:20.810Z,101676.92
2019-03-26T08:31:06.938Z,101669.61
2019-03-26T08:33:53.613Z,101665.58
2019-03-26T08:36:40.238Z,101654.72
2019-03-26T08:39:26.709Z,101662.39
2019-03-26T08:42:12.765Z,101664.17
2019-03-26T08:44:59.062Z,101671.92
2019-03-26T08:47:45.785Z,101677.75
2019-03-26T08:50:32.375Z,101675.12
2019-03-26T08:53:19.105Z,101675.36
2019-03-26T08:56:06.076Z,101678.22
2019-03-26T08:58:52.489Z,101667.02
2019-03-26T09:01:38.971Z,101669.30
2019-03-26T09:04:26.996Z,101667.41
2019-03-26T09:07:14.038Z,101672.47
2019-03-26T09:10:00.416Z,101674.91
2019-03-26T09:12:47.073Z,101672.39
2019-03-26T09:15:33.385Z,101673.81
2019-03-26T09:18:19.477Z,101669.45
2019-03-26T09:21:05.683Z,101674.25
2019-03-26T09:23:52.386Z,101663.56
2019-03-26T09:26:38.733Z,101662.71
2019-03-26T09:29:25.165Z,101666.73
2019-03-26T09:32:11.246Z,101665.86
2019-03-26T09:34:57.576Z,101668.16
2019-03-26T09:37:43.699Z,101673.81
2019-03-26T09:40:30.060Z,101680.72
2019-03-26T09:43:17.018Z,101684.67
2019-03-26T09:46:03.277Z,101681.48
2019-03-26T09:48:51.898Z,101685.46
2019-03-26T09:51:38.633Z,101675.09
2019-03-26T09:54:24.630Z,101678.05
2019-03-26T09:57:10.982Z,101675.04
2019-03-26T09:59:57.142Z,101673.02
2019-03-26T10:02:43.848Z,101670.41
2019-03-26T10:05:30.214Z,101668.27
2019-03-26T10:08:18.050Z,101674.25
2019-03-26T10:11:04.438Z,101671.02
2019-03-26T10:13:50.811Z,101667.30
2019-03-26T10:16:37.118Z,101671.00
2019-03-26T10:19:24.635Z,101671.95
2019-03-26T10:22:10.886Z,101665.44
2019-03-26T10:24:57.042Z,101671.04
2019-03-26T10:27:43.910Z,101669.48
2019-03-26T10:30:40.169Z,101661.33
2019-03-26T10:33:26.218Z,101654.35
2019-03-26T10:36:12.763Z,101651.05
2019-03-26T10:39:05.320Z,101655.88
2019-03-26T10:41:47.006Z,101651.70
2019-03-26T10:44:33.504Z,101647.53
2019-03-26T10:47:20.215Z,101654.37
2019-03-26T10:50:06.677Z,101651.63
2019-03-26T10:52:53.637Z,101648.69
2019-03-26T10:55:39.730Z,101640.42
2019-03-26T10:58:25.919Z,101644.17
2019-03-26T11:01:12.126Z,101634.73
2019-03-26T11:03:59.998Z,101628.81
2019-03-26T11:06:46.279Z,101626.37
2019-03-26T11:09:32.408Z,101622.05
2019-03-26T11:12:19.640Z,101621.55
2019-03-26T11:15:08.036Z,101624.47
2019-03-26T11:17:54.298Z,101616.66
2019-03-26T11:20:40.499Z,101616.50
2019-03-26T11:23:26.659Z,101608.45
2019-03-26T11:26:12.909Z,101602.27
2019-03-26T11:28:59.229Z,101602.87
2019-03-26T11:31:45.791Z,101608.47
2019-03-26T11:34:31.895Z,101608.33
2019-03-26T11:37:18.563Z,101608.62
2019-03-26T11:40:05.120Z,101614.53
2019-03-26T11:42:51.515Z,101611.88
2019-03-26T11:45:37.610Z,101610.38
2019-03-26T11:48:23.839Z,101606.13
2019-03-26T11:51:10.030Z,101611.13
2019-03-26T11:53:57.526Z,101609.08
2019-03-26T11:56:44.436Z,101602.24
2019-03-26T11:59:30.915Z,101611.63
2019-03-26T12:02:17.732Z,101612.95
2019-03-26T12:05:05.208Z,101612.80
2019-03-26T12:07:51.080Z,101610.63
2019-03-26T12:10:37.570Z,101607.23
2019-03-26T12:13:23.484Z,101611.17
2019-03-26T12:16:09.829Z,101614.11
2019-03-26T12:18:59.803Z,101623.77
2019-03-26T12:21:50.459Z,101616.41
2019-03-26T12:24:36.766Z,101616.69
2019-03-26T12:27:24.027Z,101610.84
2019-03-26T12:30:11.179Z,101613.69
2019-03-26T12:32:58.507Z,101615.59
2019-03-26T12:35:44.931Z,101616.98
2019-03-26T12:38:32.555Z,101628.67
2019-03-26T12:41:19.327Z,101624.64
2019-03-26T12:44:05.653Z,101629.09
2019-03-26T12:46:51.839Z,101626.53
2019-03-26T12:49:37.911Z,101626.77
2019-03-26T12:52:24.793Z,101619.45
2019-03-26T12:55:10.809Z,101617.70
2019-03-26T12:57:56.855Z,101615.44
2019-03-26T13:00:43.325Z,101618.49
2019-03-26T13:03:29.680Z,101616.33
2019-03-26T13:06:16.043Z,101602.20
2019-03-26T13:09:02.392Z,101608.73
2019-03-26T13:11:48.760Z,101606.79
2019-03-26T13:14:35.324Z,101610.72
2019-03-26T13:17:21.960Z,101614.66
2019-03-26T13:20:08.839Z,101615.29
2019-03-26T13:22:56.196Z,101615.95
2019-03-26T13:25:42.644Z,101609.68
2019-03-26T13:28:29.743Z,101616.65
2019-03-26T13:31:15.808Z,101608.59
2019-03-26T13:34:01.865Z,101616.30
2019-03-26T13:36:47.905Z,101607.63
2019-03-26T13:39:35.233Z,101613.23
2019-03-26T13:42:21.569Z,101609.33
2019-03-26T13:45:08.078Z,101606.98
2019-03-26T13:47:54.262Z,101607.35
2019-03-26T13:50:40.936Z,101604.85
2019-03-26T13:53:27.601Z,101612.08
2019-03-26T13:56:13.620Z,101609.41
2019-03-26T13:58:59.968Z,101604.62
2019-03-26T14:01:46.020Z,101611.07
2019-03-26T14:04:32.316Z,101610.38
2019-03-26T14:07:20.485Z,101613.31
2019-03-26T14:10:07.068Z,101606.77
2019-03-26T14:12:53.566Z,101597.41
2019-03-26T14:15:40.120Z,101604.66
2019-03-26T14:18:26.368Z,101606.79
2019-03-26T14:21:13.159Z,101611.95
2019-03-26T14:23:59.784Z,101612.39
2019-03-26T14:26:46.285Z,101608.08
2019-03-26T14:29:32.491Z,101598.42
2019-03-26T14:32:19.098Z,101598.22
2019-03-26T14:35:06.221Z,101604.98
2019-03-26T14:37:55.385Z,101607.52
2019-03-26T14:40:53.994Z,101602.50
2019-03-26T14:43:30.050Z,101604.63
2019-03-26T14:46:16.325Z,101607.97
2019-03-26T14:49:03.241Z,101618.72
2019-03-26T14:51:49.541Z,101604.83
2019-03-26T14:54:35.528Z,101610.66
2019-03-26T14:57:22.033Z,101611.97
2019-03-26T15:00:08.763Z,101617.07
2019-03-26T15:02:55.245Z,101615.25
2019-03-26T15:05:41.477Z,101606.09
2019-03-26T15:08:27.741Z,101605.46
2019-03-26T15:11:13.723Z,101608.22
2019-03-26T15:14:01.372Z,101615.81
2019-03-26T15:16:47.857Z,101619.55
2019-03-26T15:19:34.528Z,101612.82
2019-03-26T15:22:20.660Z,101615.85
2019-03-26T15:25:07.167Z,101609.02
2019-03-26T15:27:53.413Z,101612.68
2019-03-26T15:30:39.966Z,101614.09
2019-03-26T15:33:26.262Z,101619.96
2019-03-26T15:36:12.368Z,101608.81
2019-03-26T15:38:58.938Z,101612.81
2019-03-26T15:41:45.100Z,101616.13
2019-03-26T15:44:31.473Z,101605.11
2019-03-26T15:47:18.278Z,101606.56
2019-03-26T15:50:05.545Z,101604.25
2019-03-26T15:52:51.866Z,101605.00
2019-03-26T15:55:38.571Z,101607.23
2019-03-26T15:58:24.854Z,101612.86
2019-03-26T16:01:14.212Z,101612.53
2019-03-26T16:04:00.885Z,101612.73
2019-03-26T16:06:46.788Z,101617.48
2019-03-26T16:09:34.005Z,101618.95
2019-03-26T16:12:20.316Z,101621.56
2019-03-26T16:15:06.810Z,101622.21
2019-03-26T16:17:52.874Z,101623.25
2019-03-26T16:20:41.108Z,101621.58
2019-03-26T16:23:27.462Z,101621.41
2019-03-26T16:26:13.981Z,101621.80
2019-03-26T16:29:03.437Z,101624.41
2019-03-26T16:31:49.958Z,101621.52
2019-03-26T16:34:36.226Z,101614.42
2019-03-26T16:37:23.858Z,101617.33
2019-03-26T16:40:10.570Z,101619.65
2019-03-26T16:42:56.720Z,101616.25
2019-03-26T16:45:44.796Z,101620.50
2019-03-26T16:48:31.215Z,101617.23
2019-03-26T16:51:17.791Z,101616.09
2019-03-26T16:54:05.429Z,101614.84
2019-03-26T16:56:51.793Z,101613.30
2019-03-26T16:59:39.257Z,101610.17
2019-03-26T17:02:25.884Z,101608.53
2019-03-26T17:05:16.320Z,101599.81
2019-03-26T17:08:15.315Z,101609.43
2019-03-26T17:11:18.829Z,101613.37
2019-03-26T17:14:05.147Z,101616.71
2019-03-26T17:16:51.861Z,101616.78
2019-03-26T17:19:38.322Z,101612.33
2019-03-26T17:22:24.741Z,101610.64
2019-03-26T17:25:11.712Z,101612.81
2019-03-26T17:27:58.382Z,101607.14
2019-03-26T17:30:44.886Z,101609.05
2019-03-26T17:33:32.045Z,101607.77
2019-03-26T17:36:18.097Z,101614.60
2019-03-26T17:39:06.578Z,101612.66
2019-03-26T17:41:53.363Z,101613.00
2019-03-26T17:44:39.941Z,101613.68
2019-03-26T17:47:26.063Z,101623.14
2019-03-26T17:50:13.695Z,101618.08
2019-03-26T17:52:59.790Z,101618.67
2019-03-26T17:55:46.479Z,101622.36
2019-03-26T17:58:33.315Z,101626.03
2019-03-26T18:01:19.603Z,101625.39
2019-03-26T18:04:06.215Z,101623.50
2019-03-26T18:06:53.781Z,101627.03
2019-03-26T18:09:40.139Z,101631.31
2019-03-26T18:12:31.119Z,101633.73
2019-03-26T18:15:15.607Z,101640.21
2019-03-26T18:18:02.608Z,101642.57
2019-03-26T18:20:48.822Z,101646.56
2019-03-26T18:23:35.056Z,101651.03
2019-03-26T18:26:22.022Z,101655.23
2019-03-26T18:29:08.382Z,101652.12
2019-03-26T18:31:54.503Z,101652.66
2019-03-26T18:34:41.794Z,101649.58
2019-03-26T18:37:32.571Z,101657.09
2019-03-26T18:40:19.859Z,101657.39
2019-03-26T18:43:06.454Z,101666.00
2019-03-26T18:45:52.882Z,101669.12
2019-03-26T18:48:41.505Z,101671.13
2019-03-26T18:51:27.863Z,101671.23
2019-03-26T18:54:14.070Z,101674.80
2019-03-26T18:57:00.530Z,101677.80
2019-03-26T18:59:46.623Z,101676.84
2019-03-26T19:02:33.411Z,101675.94
2019-03-26T19:05:19.883Z,101683.25
2019-03-26T19:08:06.787Z,101685.72
2019-03-26T19:10:53.108Z,101698.50
2019-03-26T19:13:39.409Z,101701.49
2019-03-26T19:16:25.771Z,101705.91
2019-03-26T19:19:11.859Z,101707.25
2019-03-26T19:21:58.331Z,101709.28
2019-03-26T19:24:44.794Z,101710.25
2019-03-26T19:27:31.259Z,101715.83
2019-03-26T19:30:17.479Z,101721.95
2019-03-26T19:33:03.971Z,101719.13
2019-03-26T19:35:50.590Z,101723.62
2019-03-26T19:38:36.765Z,101727.81
2019-03-26T19:41:23.831Z,101730.44
2019-03-26T19:44:10.720Z,101725.75
2019-03-26T19:46:58.403Z,101729.31
2019-03-26T19:49:44.994Z,101732.02
2019-03-26T19:52:31.551Z,101731.18
2019-03-26T19:55:17.731Z,101726.55
2019-03-26T19:58:04.184Z,101722.28
2019-03-26T20:00:50.740Z,101719.05
2019-03-26T20:03:36.871Z,101717.39
2019-03-26T20:06:24.115Z,101720.67
2019-03-26T20:09:10.310Z,101719.22
2019-03-26T20:11:56.335Z,101721.80
2019-03-26T20:14:43.424Z,101718.84
2019-03-26T20:17:30.339Z,101716.76
2019-03-26T20:20:17.559Z,101719.34
2019-03-26T20:23:04.787Z,101720.30
2019-03-26T20:25:51.706Z,101717.01
2019-03-26T20:28:38.301Z,101720.42
2019-03-26T20:31:25.107Z,101712.91
2019-03-26T20:34:11.211Z,101720.42
2019-03-26T20:36:57.402Z,101722.25
2019-03-26T20:39:44.313Z,101725.25
2019-03-26T20:42:30.820Z,101733.14
2019-03-26T20:45:17.523Z,101729.28
2019-03-26T20:48:04.232Z,101730.52
2019-03-26T20:50:50.853Z,101741.58
2019-03-26T20:53:37.547Z,101738.44
2019-03-26T20:56:24.780Z,101737.60
2019-03-26T20:59:10.999Z,101733.16
2019-03-26T21:01:57.060Z,101744.06
2019-03-26T21:04:44.040Z,101752.70
2019-03-26T21:07:30.494Z,101754.72
2019-03-26T21:10:16.719Z,101751.50
2019-03-26T21:13:03.652Z,101762.89
2019-03-26T21:15:57.132Z,101763.79
2019-03-26T21:18:38.739Z,101758.81
2019-03-26T21:21:25.375Z,101759.66
2019-03-26T21:24:11.598Z,101761.75
2019-03-26T21:26:58.324Z,101764.66
2019-03-26T21:29:44.530Z,101771.82
2019-03-26T21:32:31.219Z,101767.47
2019-03-26T21:35:18.427Z,101761.03
2019-03-26T21:38:05.280Z,101770.50
2019-03-26T21:40:51.475Z,101766.69
2019-03-26T21:43:38.652Z,101772.85
2019-03-26T21:46:25.807Z,101772.72
2019-03-26T21:49:13.011Z,101768.02
2019-03-26T21:52:00.865Z,101767.51
2019-03-26T21:54:47.240Z,101767.37
2019-03-26T21:57:35.230Z,101766.27
2019-03-26T22:00:21.527Z,101764.61
2019-03-26T22:03:07.833Z,101768.16
2019-03-26T22:05:53.942Z,101757.30
2019-03-26T22:08:40.011Z,101752.34
2019-03-26T22:11:26.569Z,101751.33
2019-03-26T22:14:18.266Z,101747.55
2019-03-26T22:17:00.918Z,101749.80
2019-03-26T22:19:47.488Z,101753.98
2019-03-26T22:22:34.179Z,101757.84
2019-03-26T22:25:20.225Z,101762.88
2019-03-26T22:28:06.901Z,101753.14
2019-03-26T22:30:52.912Z,101756.27
2019-03-26T22:33:39.132Z,101752.37
2019-03-26T22:36:26.860Z,101753.92
2019-03-26T22:39:13.117Z,101755.31
2019-03-26T22:41:59.669Z,101751.55
2019-03-26T22:44:46.962Z,101756.44
2019-03-26T22:47:33.371Z,101755.76
2019-03-26T22:50:19.714Z,101757.88
2019-03-26T22:53:06.470Z,101754.12
2019-03-26T22:55:52.917Z,101749.18
2019-03-26T22:58:39.621Z,101750.31
2019-03-26T23:01:26.205Z,101753.65
2019-03-26T23:04:12.299Z,101753.50
2019-03-26T23:06:58.859Z,101762.40
2019-03-26T23:09:45.305Z,101756.80
2019-03-26T23:12:31.415Z,101765.94
2019-03-26T23:15:22.340Z,101755.39
2019-03-26T23:18:09.281Z,101758.53
2019-03-26T23:20:55.813Z,101764.10
2019-03-26T23:23:42.578Z,101767.65
2019-03-26T23:26:29.121Z,101759.20
2019-03-26T23:29:15.436Z,101769.23
2019-03-26T23:32:01.998Z,101769.30
2019-03-26T23:34:48.686Z,101774.39
2019-03-26T23:37:35.097Z,101770.84
2019-03-26T23:40:21.758Z,101776.70
2019-03-26T23:43:08.265Z,101781.80
2019-03-26T23:45:55.068Z,101779.69
2019-03-26T23:48:41.451Z,101782.87
2019-03-26T23:51:27.765Z,101779.27
2019-03-26T23:54:13.925Z,101776.81
2019-03-26T23:57:00.795Z,101778.09
2019-03-26T23:59:47.110Z,101783.70
